createdAt,value
2018-10-18T00:00:51.422Z,17.20
2018-10-18T00:01:51.421Z,17.10
2018-10-18T00:02:51.420Z,16.80
2018-10-18T00:03:51.412Z,17.20
2018-10-18T00:04:51.410Z,17.30
2018-10-18T00:06:51.405Z,15.80
2018-10-18T00:08:39.761Z,16.60
2018-10-18T00:10:33.076Z,15.70
2018-10-18T00:11:33.075Z,16.10
2018-10-18T00:12:33.095Z,15.90
2018-10-18T00:13:34.281Z,15.20
2018-10-18T00:14:33.066Z,15.80
2018-10-18T00:15:33.063Z,15.20
2018-10-18T00:16:33.059Z,15.70
2018-10-18T00:17:33.058Z,14.30
2018-10-18T00:18:33.258Z,16.00
2018-10-18T00:19:33.055Z,14.60
2018-10-18T00:20:33.051Z,14.80
2018-10-18T00:21:33.049Z,15.40
2018-10-18T00:22:33.050Z,13.50
2018-10-18T00:23:33.045Z,13.70
2018-10-18T00:24:33.042Z,14.50
2018-10-18T00:25:33.040Z,15.00
2018-10-18T00:26:33.039Z,14.00
2018-10-18T00:27:33.036Z,14.10
2018-10-18T00:29:33.031Z,13.80
2018-10-18T00:30:33.396Z,14.60
2018-10-18T00:31:33.230Z,13.60
2018-10-18T00:32:33.025Z,13.50
2018-10-18T00:33:33.026Z,13.40
2018-10-18T00:34:33.022Z,14.60
2018-10-18T00:35:33.019Z,14.80
2018-10-18T00:36:33.017Z,13.90
2018-10-18T00:37:33.015Z,13.70
2018-10-18T00:38:33.014Z,14.20
2018-10-18T00:39:33.011Z,13.60
2018-10-18T00:40:33.372Z,12.00
2018-10-18T00:41:33.007Z,14.20
2018-10-18T00:42:33.005Z,13.70
2018-10-18T00:43:33.205Z,13.00
2018-10-18T00:45:32.998Z,13.30
2018-10-18T00:46:32.999Z,11.80
2018-10-18T00:47:32.996Z,12.20
2018-10-18T00:48:33.198Z,11.90
2018-10-18T00:49:32.990Z,13.50
2018-10-18T00:50:32.989Z,13.50
2018-10-18T00:51:32.987Z,13.00
2018-10-18T00:52:32.989Z,12.20
2018-10-18T00:53:32.986Z,11.60
2018-10-18T00:54:32.985Z,14.50
2018-10-18T00:55:32.980Z,13.50
2018-10-18T00:56:32.977Z,13.90
2018-10-18T00:57:32.974Z,13.20
2018-10-18T00:58:32.975Z,11.90
2018-10-18T00:59:32.972Z,12.40
2018-10-18T01:00:33.345Z,12.30
2018-10-18T01:01:32.969Z,12.50
2018-10-18T01:02:32.966Z,12.50
2018-10-18T01:03:32.964Z,12.20
2018-10-18T01:04:33.324Z,11.00
2018-10-18T01:05:32.963Z,10.80
2018-10-18T01:06:33.185Z,10.90
2018-10-18T01:07:33.967Z,11.70
2018-10-18T01:08:32.952Z,11.10
2018-10-18T01:09:32.951Z,11.60
2018-10-18T01:10:32.950Z,10.70
2018-10-18T01:11:32.947Z,10.90
2018-10-18T01:12:33.130Z,11.10
2018-10-18T01:13:32.944Z,12.00
2018-10-18T01:14:33.750Z,9.20
2018-10-18T01:15:32.940Z,10.30
2018-10-18T01:16:33.300Z,10.10
2018-10-18T01:17:32.935Z,10.00
2018-10-18T01:18:32.994Z,11.40
2018-10-18T01:19:33.336Z,11.00
2018-10-18T01:20:33.472Z,10.20
2018-10-18T01:21:32.927Z,10.90
2018-10-18T01:24:17.729Z,10.30
2018-10-18T01:25:16.242Z,10.20
2018-10-18T01:27:16.240Z,11.70
2018-10-18T01:28:18.859Z,11.70
2018-10-18T01:29:16.234Z,10.20
2018-10-18T01:34:16.224Z,11.60
2018-10-18T01:35:16.224Z,11.10
2018-10-18T01:36:16.250Z,11.80
2018-10-18T01:37:16.648Z,11.40
2018-10-18T01:38:16.272Z,12.00
2018-10-18T01:39:16.578Z,12.60
2018-10-18T01:40:16.212Z,12.70
2018-10-18T01:41:16.210Z,12.50
2018-10-18T01:42:16.289Z,12.80
2018-10-18T01:43:16.205Z,11.40
2018-10-18T01:44:16.289Z,11.40
2018-10-18T01:45:16.200Z,11.00
2018-10-18T01:46:16.200Z,11.00
2018-10-18T01:47:16.198Z,10.20
2018-10-18T01:48:16.363Z,11.40
2018-10-18T01:49:16.193Z,11.80
2018-10-18T01:50:16.273Z,11.90
2018-10-18T01:51:16.553Z,12.00
2018-10-18T01:52:16.189Z,11.40
2018-10-18T01:54:16.245Z,10.90
2018-10-18T01:55:16.182Z,11.10
2018-10-18T01:56:16.357Z,12.30
2018-10-18T01:57:16.176Z,11.50
2018-10-18T01:58:16.175Z,11.80
2018-10-18T01:59:16.175Z,11.30
2018-10-18T02:00:16.594Z,11.00
2018-10-18T02:01:16.169Z,11.90
2018-10-18T02:02:16.264Z,12.30
2018-10-18T02:03:16.167Z,12.40
2018-10-18T02:04:16.164Z,12.00
2018-10-18T02:05:16.160Z,11.20
2018-10-18T02:06:16.272Z,11.90
2018-10-18T02:07:16.157Z,11.00
2018-10-18T02:08:16.373Z,12.20
2018-10-18T02:09:16.154Z,11.10
2018-10-18T02:10:16.153Z,11.50
2018-10-18T02:11:16.149Z,12.20
2018-10-18T02:12:16.198Z,11.20
2018-10-18T02:13:16.146Z,11.40
2018-10-18T02:14:16.145Z,12.60
2018-10-18T02:15:16.143Z,10.50
2018-10-18T02:16:16.140Z,11.50
2018-10-18T02:17:16.139Z,11.80
2018-10-18T02:18:16.176Z,11.90
2018-10-18T02:19:16.162Z,10.90
2018-10-18T02:20:16.133Z,11.60
2018-10-18T02:21:16.130Z,11.10
2018-10-18T02:22:16.129Z,11.70
2018-10-18T02:23:16.126Z,11.00
2018-10-18T02:24:16.178Z,12.60
2018-10-18T02:26:16.120Z,12.10
2018-10-18T02:27:16.118Z,11.90
2018-10-18T02:28:16.118Z,11.50
2018-10-18T02:29:16.114Z,11.50
2018-10-18T02:30:16.183Z,10.30
2018-10-18T02:31:16.112Z,11.50
2018-10-18T02:32:16.109Z,11.00
2018-10-18T02:33:16.107Z,11.50
2018-10-18T02:34:16.104Z,11.90
2018-10-18T02:35:16.104Z,11.90
2018-10-18T02:36:16.174Z,13.00
2018-10-18T02:37:16.099Z,13.50
2018-10-18T02:38:16.098Z,10.10
2018-10-18T02:39:16.097Z,11.20
2018-10-18T02:40:16.093Z,12.30
2018-10-18T02:41:16.091Z,11.30
2018-10-18T02:42:16.136Z,11.80
2018-10-18T02:43:16.088Z,10.70
2018-10-18T02:44:19.114Z,11.80
2018-10-18T02:45:16.085Z,10.80
2018-10-18T02:46:16.082Z,12.60
2018-10-18T02:47:16.079Z,12.20
2018-10-18T02:48:16.156Z,10.90
2018-10-18T02:49:16.076Z,10.90
2018-10-18T02:50:16.074Z,11.40
2018-10-18T02:51:16.073Z,10.10
2018-10-18T02:52:16.071Z,10.10
2018-10-18T02:53:16.069Z,9.20
2018-10-18T02:54:16.220Z,10.70
2018-10-18T02:55:16.429Z,9.70
2018-10-18T02:56:16.065Z,10.30
2018-10-18T02:57:16.062Z,12.30
2018-10-18T02:58:16.060Z,10.90
2018-10-18T02:59:16.059Z,11.20
2018-10-18T03:00:16.315Z,11.10
2018-10-18T03:01:16.058Z,10.30
2018-10-18T03:02:16.052Z,10.40
2018-10-18T03:03:16.051Z,10.00
2018-10-18T03:04:16.049Z,10.40
2018-10-18T03:05:16.046Z,10.30
2018-10-18T03:06:16.083Z,10.10
2018-10-18T03:07:16.045Z,10.70
2018-10-18T03:08:16.042Z,9.90
2018-10-18T03:09:16.039Z,9.90
2018-10-18T03:10:16.043Z,10.90
2018-10-18T03:11:16.037Z,10.70
2018-10-18T03:12:16.122Z,10.10
2018-10-18T03:13:16.033Z,10.20
2018-10-18T03:14:16.057Z,10.90
2018-10-18T03:15:16.030Z,10.80
2018-10-18T03:16:16.028Z,9.90
2018-10-18T03:18:16.156Z,10.20
2018-10-18T03:19:16.022Z,10.60
2018-10-18T03:20:16.020Z,9.90
2018-10-18T03:21:16.019Z,9.30
2018-10-18T03:22:16.018Z,9.50
2018-10-18T03:23:16.015Z,9.50
2018-10-18T03:24:16.089Z,9.70
2018-10-18T03:25:16.376Z,8.80
2018-10-18T03:26:16.009Z,9.00
2018-10-18T03:27:16.007Z,9.80
2018-10-18T03:28:16.007Z,9.00
2018-10-18T03:29:16.004Z,10.60
2018-10-18T03:30:16.427Z,9.90
2018-10-18T03:31:16.011Z,9.30
2018-10-18T03:32:15.999Z,10.80
2018-10-18T03:33:15.999Z,10.60
2018-10-18T03:34:15.994Z,11.00
2018-10-18T03:35:16.359Z,10.00
2018-10-18T03:36:16.017Z,10.40
2018-10-18T03:37:15.989Z,10.00
2018-10-18T03:38:15.987Z,9.90
2018-10-18T03:39:15.986Z,10.90
2018-10-18T03:40:15.984Z,9.90
2018-10-18T03:41:15.996Z,10.50
2018-10-18T03:42:16.057Z,10.30
2018-10-18T03:43:16.181Z,10.00
2018-10-18T03:44:15.977Z,11.20
2018-10-18T03:45:16.343Z,11.00
2018-10-18T03:46:15.972Z,9.60
2018-10-18T03:47:15.970Z,8.60
2018-10-18T03:48:16.023Z,8.40
2018-10-18T03:49:15.972Z,8.70
2018-10-18T03:50:15.965Z,8.60
2018-10-18T03:51:15.969Z,8.50
2018-10-18T03:52:15.962Z,8.60
2018-10-18T03:53:15.960Z,8.20
2018-10-18T03:54:16.029Z,7.90
2018-10-18T03:55:15.955Z,8.00
2018-10-18T03:56:15.954Z,7.90
2018-10-18T03:57:15.951Z,8.10
2018-10-18T03:58:15.950Z,7.40
2018-10-18T03:59:15.948Z,7.90
2018-10-18T04:00:15.966Z,7.90
2018-10-18T04:01:15.943Z,7.50
2018-10-18T04:02:15.943Z,8.10
2018-10-18T04:03:15.941Z,7.10
2018-10-18T04:04:15.937Z,7.00
2018-10-18T04:05:15.936Z,7.40
2018-10-18T04:06:15.964Z,8.20
2018-10-18T04:07:15.933Z,7.40
2018-10-18T04:08:15.930Z,7.30
2018-10-18T04:09:15.927Z,7.90
2018-10-18T04:10:16.129Z,7.20
2018-10-18T04:11:15.937Z,6.80
2018-10-18T04:12:15.959Z,7.10
2018-10-18T04:13:16.019Z,7.20
2018-10-18T04:14:15.918Z,7.00
2018-10-18T04:15:15.943Z,8.10
2018-10-18T04:16:15.915Z,7.20
2018-10-18T04:17:15.913Z,7.20
2018-10-18T04:18:15.917Z,6.40
2018-10-18T04:19:15.909Z,7.00
2018-10-18T04:20:15.908Z,7.00
2018-10-18T04:21:15.905Z,6.00
2018-10-18T04:22:15.903Z,6.40
2018-10-18T04:23:15.902Z,5.60
2018-10-18T04:24:15.971Z,6.10
2018-10-18T04:25:15.908Z,6.60
2018-10-18T04:27:15.894Z,5.20
2018-10-18T04:28:15.894Z,5.70
2018-10-18T04:29:16.154Z,5.70
2018-10-18T04:30:15.982Z,5.70
2018-10-18T04:31:18.509Z,5.10
2018-10-18T04:32:15.884Z,4.90
2018-10-18T04:33:15.881Z,5.10
2018-10-18T04:34:15.880Z,5.00
2018-10-18T04:35:15.879Z,5.60
2018-10-18T04:36:15.881Z,5.10
2018-10-18T04:37:15.965Z,5.20
2018-10-18T04:38:15.873Z,4.80
2018-10-18T04:39:15.872Z,5.00
2018-10-18T04:40:15.871Z,5.10
2018-10-18T04:41:15.867Z,4.90
2018-10-18T04:42:16.294Z,4.30
2018-10-18T04:43:15.863Z,4.40
2018-10-18T04:45:04.193Z,4.90
2018-10-18T04:46:04.197Z,4.50
2018-10-18T04:47:04.195Z,4.40
2018-10-18T04:48:04.360Z,4.40
2018-10-18T04:49:04.186Z,5.10
2018-10-18T04:50:04.184Z,4.40
2018-10-18T04:51:04.181Z,4.60
2018-10-18T04:52:04.181Z,4.60
2018-10-18T04:53:04.178Z,4.30
2018-10-18T04:54:04.176Z,4.50
2018-10-18T04:55:04.194Z,4.60
2018-10-18T04:56:04.174Z,5.10
2018-10-18T04:57:04.171Z,4.80
2018-10-18T04:58:04.168Z,4.80
2018-10-18T04:59:04.167Z,4.40
2018-10-18T05:00:04.367Z,4.50
2018-10-18T05:01:04.181Z,4.80
2018-10-18T05:02:04.172Z,4.80
2018-10-18T05:03:04.160Z,4.00
2018-10-18T05:04:04.157Z,4.70
2018-10-18T05:05:04.152Z,4.70
2018-10-18T05:06:04.152Z,4.60
2018-10-18T05:07:04.199Z,4.90
2018-10-18T05:08:04.147Z,4.20
2018-10-18T05:09:04.145Z,4.90
2018-10-18T05:10:04.146Z,4.80
2018-10-18T05:11:04.169Z,3.80
2018-10-18T05:12:04.141Z,4.70
2018-10-18T05:13:04.143Z,4.70
2018-10-18T05:14:04.137Z,4.20
2018-10-18T05:15:04.161Z,4.50
2018-10-18T05:16:04.132Z,4.20
2018-10-18T05:17:04.130Z,4.80
2018-10-18T05:18:04.128Z,4.70
2018-10-18T05:19:04.154Z,4.30
2018-10-18T05:20:04.124Z,4.30
2018-10-18T05:21:04.122Z,4.30
2018-10-18T05:22:04.119Z,4.60
2018-10-18T05:23:04.118Z,5.00
2018-10-18T05:24:04.115Z,4.60
2018-10-18T05:25:04.177Z,4.60
2018-10-18T05:27:04.109Z,5.10
2018-10-18T05:28:04.310Z,5.20
2018-10-18T05:29:04.104Z,4.60
2018-10-18T05:30:04.102Z,5.10
2018-10-18T05:31:04.132Z,4.50
2018-10-18T05:33:04.459Z,4.90
2018-10-18T05:34:04.094Z,5.10
2018-10-18T05:35:04.091Z,5.30
2018-10-18T05:36:04.089Z,4.80
2018-10-18T05:37:04.141Z,4.70
2018-10-18T05:38:04.088Z,4.10
2018-10-18T05:39:04.082Z,5.00
2018-10-18T05:40:04.081Z,4.30
2018-10-18T05:42:04.085Z,5.00
2018-10-18T05:43:04.126Z,4.70
2018-10-18T05:44:04.072Z,4.00
2018-10-18T05:45:04.071Z,4.50
2018-10-18T05:46:04.066Z,4.60
2018-10-18T05:47:04.101Z,4.40
2018-10-18T05:48:04.065Z,4.10
2018-10-18T05:49:04.143Z,4.80
2018-10-18T05:50:04.058Z,5.00
2018-10-18T05:51:04.418Z,4.90
2018-10-18T05:52:04.053Z,4.20
2018-10-18T05:53:04.059Z,4.90
2018-10-18T05:54:04.088Z,4.60
2018-10-18T05:55:04.065Z,4.30
2018-10-18T05:56:04.044Z,4.50
2018-10-18T05:57:04.040Z,5.40
2018-10-18T05:58:04.038Z,4.40
2018-10-18T05:59:05.047Z,5.20
2018-10-18T06:00:04.036Z,4.40
2018-10-18T06:01:04.053Z,5.20
2018-10-18T06:02:04.028Z,4.70
2018-10-18T06:03:04.026Z,5.10
2018-10-18T06:04:04.023Z,5.30
2018-10-18T06:05:04.021Z,4.00
2018-10-18T06:06:04.220Z,5.10
2018-10-18T06:07:04.021Z,5.10
2018-10-18T06:08:04.220Z,4.10
2018-10-18T06:09:04.011Z,4.30
2018-10-18T06:10:04.074Z,5.30
2018-10-18T06:12:04.003Z,5.20
2018-10-18T06:13:04.011Z,5.20
2018-10-18T06:14:03.998Z,5.20
2018-10-18T06:15:03.997Z,4.90
2018-10-18T06:16:03.994Z,4.80
2018-10-18T06:17:03.993Z,5.30
2018-10-18T06:18:03.987Z,5.50
2018-10-18T06:19:04.024Z,5.00
2018-10-18T06:20:03.984Z,5.10
2018-10-18T06:21:03.979Z,5.40
2018-10-18T06:22:03.977Z,4.40
2018-10-18T06:23:04.031Z,5.30
2018-10-18T06:24:03.972Z,4.80
2018-10-18T06:25:04.630Z,4.60
2018-10-18T06:26:03.966Z,5.10
2018-10-18T06:27:03.965Z,3.80
2018-10-18T06:28:03.965Z,5.30
2018-10-18T06:29:04.010Z,4.80
2018-10-18T06:30:03.958Z,4.80
2018-10-18T06:31:04.044Z,4.60
2018-10-18T06:32:03.952Z,6.00
2018-10-18T06:33:04.042Z,5.30
2018-10-18T06:34:03.946Z,5.30
2018-10-18T06:35:03.954Z,4.40
2018-10-18T06:36:03.941Z,5.90
2018-10-18T06:37:03.971Z,5.10
2018-10-18T06:38:03.940Z,6.10
2018-10-18T06:39:03.962Z,6.20
2018-10-18T06:40:03.932Z,6.10
2018-10-18T06:41:03.959Z,5.50
2018-10-18T06:42:03.926Z,5.80
2018-10-18T06:43:03.945Z,5.80
2018-10-18T06:44:03.920Z,6.40
2018-10-18T06:45:03.921Z,5.50
2018-10-18T06:46:03.915Z,5.90
2018-10-18T06:47:03.936Z,6.10
2018-10-18T06:48:03.942Z,7.20
2018-10-18T06:49:04.016Z,5.80
2018-10-18T06:50:03.911Z,6.00
2018-10-18T06:51:03.902Z,6.40
2018-10-18T06:52:03.899Z,6.10
2018-10-18T06:53:03.897Z,6.70
2018-10-18T06:54:03.910Z,6.60
2018-10-18T06:55:03.901Z,6.20
2018-10-18T06:56:03.890Z,7.70
2018-10-18T06:57:03.887Z,6.20
2018-10-18T06:58:03.884Z,5.70
2018-10-18T06:59:03.884Z,6.70
2018-10-18T07:00:03.928Z,6.40
2018-10-18T07:01:03.877Z,7.40
2018-10-18T07:02:03.875Z,6.80
2018-10-18T07:03:03.872Z,7.50
2018-10-18T07:04:03.870Z,6.70
2018-10-18T07:05:03.865Z,7.50
2018-10-18T07:06:03.901Z,6.70
2018-10-18T07:07:03.862Z,7.60
2018-10-18T07:08:03.860Z,8.80
2018-10-18T07:09:03.857Z,6.70
2018-10-18T07:10:03.856Z,6.60
2018-10-18T07:11:03.960Z,6.40
2018-10-18T07:12:03.852Z,7.00
2018-10-18T07:13:03.847Z,7.00
2018-10-18T07:14:03.844Z,6.40
2018-10-18T07:15:03.840Z,7.30
2018-10-18T07:16:03.840Z,7.20
2018-10-18T07:17:03.835Z,7.30
2018-10-18T07:18:03.889Z,6.90
2018-10-18T07:19:03.832Z,6.60
2018-10-18T07:20:03.829Z,7.00
2018-10-18T07:21:03.827Z,6.20
2018-10-18T07:22:03.824Z,6.20
2018-10-18T07:23:03.820Z,7.70
2018-10-18T07:24:03.844Z,6.50
2018-10-18T07:25:03.869Z,6.50
2018-10-18T07:26:03.814Z,7.40
2018-10-18T07:27:03.811Z,6.90
2018-10-18T07:28:03.809Z,6.60
2018-10-18T07:29:03.809Z,6.00
2018-10-18T07:30:03.816Z,6.90
2018-10-18T07:31:03.801Z,7.40
2018-10-18T07:32:03.799Z,5.70
2018-10-18T07:33:03.798Z,6.40
2018-10-18T07:34:03.794Z,6.30
2018-10-18T07:35:03.853Z,6.80
2018-10-18T07:36:03.823Z,6.00
2018-10-18T07:37:03.787Z,6.70
2018-10-18T07:38:03.784Z,7.00
2018-10-18T07:39:03.780Z,6.30
2018-10-18T07:40:03.778Z,6.00
2018-10-18T07:41:03.791Z,6.50
2018-10-18T07:42:03.789Z,5.60
2018-10-18T07:43:03.774Z,6.60
2018-10-18T07:44:03.770Z,6.80
2018-10-18T07:45:03.767Z,6.70
2018-10-18T07:46:03.764Z,6.40
2018-10-18T07:47:03.820Z,6.10
2018-10-18T07:48:03.789Z,6.00
2018-10-18T07:49:03.759Z,7.10
2018-10-18T07:50:03.754Z,7.60
2018-10-18T07:51:03.751Z,5.90
2018-10-18T07:52:03.751Z,6.40
2018-10-18T07:53:03.869Z,6.30
2018-10-18T07:54:03.789Z,6.60
2018-10-18T07:55:03.742Z,5.80
2018-10-18T07:56:03.740Z,6.90
2018-10-18T07:57:03.738Z,5.50
2018-10-18T07:58:03.736Z,6.30
2018-10-18T07:59:03.733Z,6.10
2018-10-18T08:00:03.910Z,6.50
2018-10-18T08:01:03.728Z,6.10
2018-10-18T08:02:03.725Z,6.10
2018-10-18T08:03:03.724Z,7.10
2018-10-18T08:04:03.723Z,6.80
2018-10-18T08:05:03.719Z,8.10
2018-10-18T08:06:03.718Z,8.60
2018-10-18T08:07:03.750Z,7.10
2018-10-18T08:08:03.713Z,5.80
2018-10-18T08:09:03.710Z,5.20
2018-10-18T08:10:03.733Z,5.80
2018-10-18T08:11:03.776Z,6.60
2018-10-18T08:12:03.706Z,6.00
2018-10-18T08:13:03.775Z,5.00
2018-10-18T08:14:03.700Z,6.70
2018-10-18T08:15:03.698Z,5.30
2018-10-18T08:16:03.696Z,5.90
2018-10-18T08:17:03.765Z,5.60
2018-10-18T08:18:03.692Z,4.90
2018-10-18T08:19:03.753Z,4.40
2018-10-18T08:20:03.686Z,5.00
2018-10-18T08:21:03.684Z,6.00
2018-10-18T08:22:03.682Z,5.50
2018-10-18T08:23:03.681Z,5.30
2018-10-18T08:24:03.679Z,5.30
2018-10-18T08:25:03.727Z,6.30
2018-10-18T08:26:03.675Z,5.20
2018-10-18T08:27:03.673Z,5.30
2018-10-18T08:28:03.671Z,5.00
2018-10-18T08:29:03.667Z,5.70
2018-10-18T08:30:03.668Z,4.50
2018-10-18T08:31:03.746Z,5.10
2018-10-18T08:32:03.663Z,4.60
2018-10-18T08:33:03.661Z,5.20
2018-10-18T08:34:03.663Z,4.90
2018-10-18T08:35:03.656Z,4.90
2018-10-18T08:36:03.655Z,3.90
2018-10-18T08:37:03.698Z,4.50
2018-10-18T08:38:03.769Z,3.90
2018-10-18T08:39:03.651Z,3.60
2018-10-18T08:40:03.650Z,3.00
2018-10-18T08:41:03.649Z,3.20
2018-10-18T08:42:03.645Z,3.60
2018-10-18T08:43:03.676Z,3.10
2018-10-18T08:44:03.698Z,3.50
2018-10-18T08:45:03.641Z,3.80
2018-10-18T08:46:03.642Z,3.40
2018-10-18T08:47:03.639Z,3.60
2018-10-18T08:48:03.638Z,3.50
2018-10-18T08:49:03.688Z,3.50
2018-10-18T08:50:03.751Z,4.20
2018-10-18T08:51:03.633Z,3.80
2018-10-18T08:52:03.632Z,3.90
2018-10-18T08:53:03.635Z,4.50
2018-10-18T08:54:03.637Z,4.20
2018-10-18T08:55:03.690Z,3.90
2018-10-18T08:56:03.628Z,4.50
2018-10-18T08:57:03.626Z,5.00
2018-10-18T08:58:03.624Z,4.50
2018-10-18T08:59:03.670Z,4.30
2018-10-18T09:00:03.625Z,3.80
2018-10-18T09:01:03.625Z,4.10
2018-10-18T09:02:03.620Z,3.80
2018-10-18T09:03:03.620Z,3.40
2018-10-18T09:04:03.619Z,4.60
2018-10-18T09:05:03.618Z,4.10
2018-10-18T09:06:03.617Z,4.40
2018-10-18T09:07:03.639Z,4.60
2018-10-18T09:08:03.616Z,4.50
2018-10-18T09:09:03.631Z,4.00
2018-10-18T09:10:03.614Z,3.90
2018-10-18T09:11:03.614Z,3.50
2018-10-18T09:12:03.612Z,4.20
2018-10-18T09:13:03.643Z,4.00
2018-10-18T09:14:03.614Z,3.90
2018-10-18T09:15:03.612Z,4.30
2018-10-18T09:16:03.677Z,3.80
2018-10-18T09:17:03.612Z,4.20
2018-10-18T09:18:03.611Z,3.90
2018-10-18T09:19:03.637Z,3.50
2018-10-18T09:20:03.608Z,3.90
2018-10-18T09:21:03.609Z,3.90
2018-10-18T09:22:03.609Z,3.60
2018-10-18T09:23:03.608Z,4.60
2018-10-18T09:24:03.609Z,3.50
2018-10-18T09:25:03.636Z,4.40
2018-10-18T09:26:03.608Z,4.10
2018-10-18T09:27:03.607Z,4.00
2018-10-18T09:28:03.606Z,3.80
2018-10-18T09:29:03.606Z,4.20
2018-10-18T09:30:03.627Z,4.00
2018-10-18T09:31:03.668Z,3.90
2018-10-18T09:32:03.606Z,3.50
2018-10-18T09:33:03.604Z,3.20
2018-10-18T09:34:03.607Z,4.20
2018-10-18T09:35:03.606Z,4.30
2018-10-18T09:36:03.608Z,3.80
2018-10-18T09:37:03.664Z,4.20
2018-10-18T09:38:03.608Z,4.00
2018-10-18T09:39:03.611Z,3.80
2018-10-18T09:40:03.612Z,4.10
2018-10-18T09:41:03.613Z,4.00
2018-10-18T09:42:03.613Z,3.40
2018-10-18T09:43:03.632Z,3.40
2018-10-18T09:44:03.620Z,3.60
2018-10-18T09:45:03.667Z,4.70
2018-10-18T09:46:03.622Z,4.60
2018-10-18T09:47:03.623Z,4.50
2018-10-18T09:48:03.627Z,4.80
2018-10-18T09:49:03.647Z,4.20
2018-10-18T09:50:03.630Z,4.00
2018-10-18T09:51:03.630Z,4.80
2018-10-18T09:52:03.635Z,4.50
2018-10-18T09:53:03.633Z,4.80
2018-10-18T09:54:03.635Z,5.10
2018-10-18T09:55:03.684Z,5.60
2018-10-18T09:56:03.666Z,4.80
2018-10-18T09:57:03.638Z,4.50
2018-10-18T09:58:03.646Z,3.90
2018-10-18T09:59:03.643Z,4.40
2018-10-18T10:00:03.643Z,4.90
2018-10-18T10:01:03.694Z,4.60
2018-10-18T10:02:03.645Z,5.40
2018-10-18T10:03:03.651Z,4.60
2018-10-18T10:04:03.679Z,5.40
2018-10-18T10:05:03.650Z,4.70
2018-10-18T10:06:03.651Z,4.90
2018-10-18T10:07:03.705Z,4.50
2018-10-18T10:08:03.657Z,4.40
2018-10-18T10:09:03.655Z,4.40
2018-10-18T10:10:03.660Z,4.90
2018-10-18T10:11:03.658Z,4.20
2018-10-18T10:12:03.660Z,4.30
2018-10-18T10:13:03.708Z,5.80
2018-10-18T10:14:03.663Z,5.30
2018-10-18T10:15:03.663Z,5.50
2018-10-18T10:16:03.665Z,4.90
2018-10-18T10:17:03.673Z,4.80
2018-10-18T10:18:03.703Z,5.20
2018-10-18T10:19:03.680Z,5.50
2018-10-18T10:20:03.673Z,5.00
2018-10-18T10:21:03.672Z,5.30
2018-10-18T10:22:03.674Z,5.10
2018-10-18T10:23:03.675Z,5.60
2018-10-18T10:24:03.676Z,5.60
2018-10-18T10:25:03.712Z,5.90
2018-10-18T10:26:03.678Z,5.90
2018-10-18T10:27:03.681Z,6.10
2018-10-18T10:28:03.680Z,6.50
2018-10-18T10:29:03.682Z,5.90
2018-10-18T10:30:03.712Z,5.80
2018-10-18T10:31:03.766Z,5.30
2018-10-18T10:32:03.685Z,5.20
2018-10-18T10:33:03.733Z,5.50
2018-10-18T10:34:03.686Z,6.60
2018-10-18T10:35:03.735Z,5.90
2018-10-18T10:36:03.688Z,5.80
2018-10-18T10:37:03.706Z,5.60
2018-10-18T10:38:03.689Z,5.80
2018-10-18T10:39:03.745Z,6.00
2018-10-18T10:40:03.716Z,5.00
2018-10-18T10:41:03.743Z,5.80
2018-10-18T10:42:03.799Z,4.50
2018-10-18T10:43:03.787Z,4.90
2018-10-18T10:44:03.731Z,5.30
2018-10-18T10:45:03.775Z,5.00
2018-10-18T10:46:03.752Z,5.50
2018-10-18T10:47:03.696Z,5.10
2018-10-18T10:48:03.743Z,6.40
2018-10-18T10:49:03.715Z,6.70
2018-10-18T10:50:03.742Z,6.90
2018-10-18T10:51:03.710Z,8.20
2018-10-18T10:52:03.752Z,8.50
2018-10-18T10:53:03.696Z,11.60
2018-10-18T10:54:03.728Z,7.60
2018-10-18T10:55:03.699Z,6.60
2018-10-18T10:56:03.711Z,6.50
2018-10-18T10:57:03.715Z,5.60
2018-10-18T10:58:03.802Z,5.20
2018-10-18T10:59:03.741Z,5.60
2018-10-18T11:00:03.720Z,5.50
2018-10-18T11:01:03.701Z,5.00
2018-10-18T11:02:03.705Z,5.60
2018-10-18T11:03:03.733Z,4.90
2018-10-18T11:04:03.702Z,5.30
2018-10-18T11:05:03.701Z,4.90
2018-10-18T11:06:03.776Z,5.80
2018-10-18T11:07:03.704Z,5.00
2018-10-18T11:08:03.719Z,4.80
2018-10-18T11:09:03.757Z,4.60
2018-10-18T11:10:03.702Z,4.80
2018-10-18T11:11:03.703Z,4.40
2018-10-18T11:12:03.771Z,4.70
2018-10-18T11:13:03.705Z,5.30
2018-10-18T11:14:03.722Z,4.50
2018-10-18T11:15:03.733Z,4.20
2018-10-18T11:16:03.707Z,3.60
2018-10-18T11:17:03.737Z,3.40
2018-10-18T11:18:03.716Z,3.20
2018-10-18T11:19:03.708Z,3.50
2018-10-18T11:20:03.725Z,3.30
2018-10-18T11:21:03.769Z,4.00
2018-10-18T11:22:03.708Z,3.90
2018-10-18T11:23:03.709Z,3.30
2018-10-18T11:24:03.784Z,3.90
2018-10-18T11:25:03.714Z,3.50
2018-10-18T11:26:03.726Z,3.40
2018-10-18T11:27:03.784Z,3.70
2018-10-18T11:28:03.712Z,3.90
2018-10-18T11:29:03.712Z,3.10
2018-10-18T11:30:03.773Z,3.70
2018-10-18T11:31:03.713Z,3.30
2018-10-18T11:32:03.822Z,4.50
2018-10-18T11:33:03.775Z,3.80
2018-10-18T11:34:03.717Z,3.40
2018-10-18T11:35:03.718Z,3.00
2018-10-18T11:36:03.762Z,3.80
2018-10-18T11:37:03.722Z,3.30
2018-10-18T11:38:03.759Z,3.30
2018-10-18T11:39:03.720Z,2.80
2018-10-18T11:40:03.721Z,3.20
2018-10-18T11:41:03.721Z,2.90
2018-10-18T11:42:03.775Z,3.90
2018-10-18T11:43:03.724Z,2.80
2018-10-18T11:44:03.772Z,2.80
2018-10-18T11:45:03.724Z,2.60
2018-10-18T11:46:03.725Z,3.30
2018-10-18T11:47:03.727Z,3.20
2018-10-18T11:48:03.770Z,3.10
2018-10-18T11:49:03.729Z,2.90
2018-10-18T11:50:03.759Z,2.60
2018-10-18T11:51:03.731Z,3.00
2018-10-18T11:52:03.750Z,2.60
2018-10-18T11:53:03.733Z,2.60
2018-10-18T11:54:03.806Z,3.00
2018-10-18T11:55:03.736Z,3.50
2018-10-18T11:56:03.761Z,3.10
2018-10-18T11:57:03.738Z,3.60
2018-10-18T11:58:03.737Z,3.20
2018-10-18T11:59:03.795Z,2.60
2018-10-18T12:00:03.741Z,2.90
2018-10-18T12:01:03.764Z,3.00
2018-10-18T12:02:03.790Z,3.10
2018-10-18T12:03:03.741Z,3.30
2018-10-18T12:04:03.744Z,2.90
2018-10-18T12:05:03.801Z,2.30
2018-10-18T12:06:03.778Z,2.30
2018-10-18T12:07:03.745Z,3.30
2018-10-18T12:08:03.790Z,2.80
2018-10-18T12:09:03.745Z,3.20
2018-10-18T12:10:03.746Z,2.50
2018-10-18T12:11:03.809Z,2.50
2018-10-18T12:12:03.755Z,3.00
2018-10-18T12:13:03.749Z,2.40
2018-10-18T12:14:03.777Z,2.40
2018-10-18T12:15:03.752Z,3.60
2018-10-18T12:16:03.753Z,1.90
2018-10-18T12:17:03.794Z,2.20
2018-10-18T12:18:03.756Z,1.90
2018-10-18T12:19:03.846Z,2.40
2018-10-18T12:20:03.771Z,1.90
2018-10-18T12:21:03.764Z,2.70
2018-10-18T12:22:03.769Z,2.50
2018-10-18T12:23:03.790Z,2.80
2018-10-18T12:24:03.762Z,2.50
2018-10-18T12:25:03.761Z,2.50
2018-10-18T12:26:03.799Z,2.50
2018-10-18T12:27:03.887Z,2.30
2018-10-18T12:28:03.767Z,2.20
2018-10-18T12:29:03.831Z,2.50
2018-10-18T12:30:03.768Z,2.80
2018-10-18T12:31:03.770Z,2.40
2018-10-18T12:32:03.852Z,2.40
2018-10-18T12:33:03.771Z,2.60
2018-10-18T12:34:03.771Z,2.50
2018-10-18T12:35:03.821Z,2.60
2018-10-18T12:36:03.775Z,2.30
2018-10-18T12:37:03.775Z,2.50
2018-10-18T12:38:03.789Z,2.40
2018-10-18T12:39:03.803Z,2.40
2018-10-18T12:40:03.785Z,2.70
2018-10-18T12:41:03.926Z,3.20
2018-10-18T12:42:03.872Z,3.70
2018-10-18T12:43:03.777Z,3.30
2018-10-18T12:44:03.820Z,3.40
2018-10-18T12:45:03.785Z,3.10
2018-10-18T12:46:03.778Z,2.60
2018-10-18T12:47:03.779Z,2.40
2018-10-18T12:48:03.844Z,1.90
2018-10-18T12:49:03.778Z,1.80
2018-10-18T12:50:03.790Z,1.80
2018-10-18T12:51:03.779Z,1.70
2018-10-18T12:52:03.783Z,1.90
2018-10-18T12:53:03.778Z,1.70
2018-10-18T12:54:03.837Z,2.10
2018-10-18T12:55:03.779Z,1.80
2018-10-18T12:56:03.852Z,1.70
2018-10-18T12:57:03.777Z,1.50
2018-10-18T12:58:03.778Z,1.40
2018-10-18T12:59:03.778Z,1.30
2018-10-18T13:00:03.817Z,1.80
2018-10-18T13:01:03.777Z,1.20
2018-10-18T13:02:03.828Z,1.30
2018-10-18T13:03:03.777Z,1.60
2018-10-18T13:04:03.777Z,1.30
2018-10-18T13:05:03.776Z,1.80
2018-10-18T13:06:03.802Z,1.40
2018-10-18T13:07:03.775Z,1.80
2018-10-18T13:08:03.792Z,2.00
2018-10-18T13:09:03.775Z,1.50
2018-10-18T13:10:03.775Z,1.80
2018-10-18T13:11:03.774Z,1.90
2018-10-18T13:12:03.794Z,1.60
2018-10-18T13:13:03.773Z,1.10
2018-10-18T13:14:03.843Z,1.70
2018-10-18T13:15:03.772Z,2.10
2018-10-18T13:16:03.772Z,1.80
2018-10-18T13:17:03.771Z,2.00
2018-10-18T13:18:03.813Z,1.80
2018-10-18T13:19:03.772Z,1.40
2018-10-18T13:20:03.824Z,1.50
2018-10-18T13:21:03.771Z,1.80
2018-10-18T13:22:03.771Z,1.60
2018-10-18T13:23:03.771Z,2.00
2018-10-18T13:24:03.775Z,1.60
2018-10-18T13:25:03.807Z,1.70
2018-10-18T13:26:03.832Z,1.60
2018-10-18T13:27:03.769Z,1.80
2018-10-18T13:28:03.770Z,2.00
2018-10-18T13:29:03.768Z,1.80
2018-10-18T13:30:03.799Z,1.90
2018-10-18T13:31:03.768Z,2.10
2018-10-18T13:32:03.821Z,2.00
2018-10-18T13:33:03.768Z,2.60